![]() |
EMODnet Physics ERDDAP
Easier access to scientific data |
log in|
Brought to you by EMODnet Physics |
| Dataset Title: | NDBC - Collection of dew point temperature (DEWT) TimeSeries - IN SITU MultiPointTimeSeriesObservation
|
| Institution: | NDBC (Dataset ID: TS_DEWT_NDBC) |
| Information: | Summary
| License
| FGDC
| ISO 19115
| Metadata
| Background
| Subset
| Data Access Form
| Make a graph
|
| Name | Last modified | Size | Description | |
|---|---|---|---|---|
| Parent Directory | - | - | ||
| NFDF1_TS_DEWT_012015.nc | 15-Dec-2024 17:14 | 429614 | ||
| NFDF1_TS_DEWT_012016.nc | 15-Dec-2024 17:24 | 429603 | ||
| NFDF1_TS_DEWT_012017.nc | 15-Dec-2024 17:32 | 429608 | ||
| NFDF1_TS_DEWT_012021.nc | 15-Dec-2024 17:46 | 429614 | ||
| NFDF1_TS_DEWT_012022.nc | 15-Dec-2024 17:53 | 429601 | ||
| NFDF1_TS_DEWT_012023.nc | 15-Dec-2024 18:00 | 429830 | ||
| NFDF1_TS_DEWT_012025.nc | 07-Feb-2025 09:55 | 588164 | ||
| NFDF1_TS_DEWT_012026.nc | 02-Feb-2026 16:14 | 588143 | ||
| NFDF1_TS_DEWT_022015.nc | 15-Dec-2024 17:15 | 588093 | ||
| NFDF1_TS_DEWT_022016.nc | 15-Dec-2024 17:25 | 588161 | ||
| NFDF1_TS_DEWT_022021.nc | 15-Dec-2024 17:46 | 588160 | ||
| NFDF1_TS_DEWT_022022.nc | 15-Dec-2024 17:53 | 588171 | ||
| NFDF1_TS_DEWT_022023.nc | 15-Dec-2024 18:01 | 588190 | ||
| NFDF1_TS_DEWT_022025.nc | 01-Mar-2025 04:55 | 588190 | ||
| NFDF1_TS_DEWT_032014.nc | 15-Dec-2024 17:05 | 588198 | ||
| NFDF1_TS_DEWT_032015.nc | 15-Dec-2024 17:16 | 588191 | ||
| NFDF1_TS_DEWT_032016.nc | 15-Dec-2024 17:26 | 588209 | ||
| NFDF1_TS_DEWT_032021.nc | 15-Dec-2024 17:47 | 588160 | ||
| NFDF1_TS_DEWT_032022.nc | 15-Dec-2024 17:54 | 588190 | ||
| NFDF1_TS_DEWT_032023.nc | 15-Dec-2024 18:01 | 588187 | ||
| NFDF1_TS_DEWT_032025.nc | 02-Apr-2025 03:38 | 588162 | ||
| NFDF1_TS_DEWT_032026.nc | 25-Mar-2026 06:08 | 588168 | ||
| NFDF1_TS_DEWT_042014.nc | 15-Dec-2024 17:06 | 439854 | ||
| NFDF1_TS_DEWT_042015.nc | 15-Dec-2024 17:17 | 588123 | ||
| NFDF1_TS_DEWT_042016.nc | 15-Dec-2024 17:26 | 588137 | ||
| NFDF1_TS_DEWT_042017.nc | 15-Dec-2024 17:34 | 429602 | ||
| NFDF1_TS_DEWT_042021.nc | 15-Dec-2024 17:47 | 429609 | ||
| NFDF1_TS_DEWT_042022.nc | 15-Dec-2024 17:55 | 429605 | ||
| NFDF1_TS_DEWT_042023.nc | 15-Dec-2024 18:02 | 429602 | ||
| NFDF1_TS_DEWT_042025.nc | 01-May-2025 06:05 | 429613 | ||
| NFDF1_TS_DEWT_052014.nc | 15-Dec-2024 17:06 | 429607 | ||
| NFDF1_TS_DEWT_052015.nc | 15-Dec-2024 17:19 | 429604 | ||
| NFDF1_TS_DEWT_052016.nc | 15-Dec-2024 17:27 | 429609 | ||
| NFDF1_TS_DEWT_052021.nc | 15-Dec-2024 17:48 | 429613 | ||
| NFDF1_TS_DEWT_052022.nc | 15-Dec-2024 17:55 | 429825 | ||
| NFDF1_TS_DEWT_052023.nc | 15-Dec-2024 18:03 | 588165 | ||
| NFDF1_TS_DEWT_052025.nc | 01-Jun-2025 08:17 | 588168 | ||
| NFDF1_TS_DEWT_062014.nc | 15-Dec-2024 17:07 | 588089 | ||
| NFDF1_TS_DEWT_062015.nc | 15-Dec-2024 17:20 | 440212 | ||
| NFDF1_TS_DEWT_062016.nc | 15-Dec-2024 17:27 | 588213 | ||
| NFDF1_TS_DEWT_062017.nc | 15-Dec-2024 17:35 | 588149 | ||
| NFDF1_TS_DEWT_062020.nc | 15-Dec-2024 17:42 | 588173 | ||
| NFDF1_TS_DEWT_062021.nc | 15-Dec-2024 17:49 | 588208 | ||
| NFDF1_TS_DEWT_062022.nc | 15-Dec-2024 17:56 | 588150 | ||
| NFDF1_TS_DEWT_062023.nc | 15-Dec-2024 18:03 | 588203 | ||
| NFDF1_TS_DEWT_062025.nc | 01-Jul-2025 05:37 | 588181 | ||
| NFDF1_TS_DEWT_072014.nc | 15-Dec-2024 17:07 | 588170 | ||
| NFDF1_TS_DEWT_072015.nc | 15-Dec-2024 17:21 | 588082 | ||
| NFDF1_TS_DEWT_072016.nc | 15-Dec-2024 17:28 | 418791 | ||
| NFDF1_TS_DEWT_072017.nc | 15-Dec-2024 17:35 | 588160 | ||
| NFDF1_TS_DEWT_072020.nc | 15-Dec-2024 17:43 | 588175 | ||
| NFDF1_TS_DEWT_072021.nc | 15-Dec-2024 17:49 | 588074 | ||
| NFDF1_TS_DEWT_072022.nc | 15-Dec-2024 17:56 | 588126 | ||
| NFDF1_TS_DEWT_072023.nc | 15-Dec-2024 18:04 | 588138 | ||
| NFDF1_TS_DEWT_072025.nc | 01-Aug-2025 05:47 | 429267 | ||
| NFDF1_TS_DEWT_082014.nc | 15-Dec-2024 17:08 | 429278 | ||
| NFDF1_TS_DEWT_082015.nc | 15-Dec-2024 17:21 | 429279 | ||
| NFDF1_TS_DEWT_082016.nc | 15-Dec-2024 17:29 | 429284 | ||
| NFDF1_TS_DEWT_082017.nc | 15-Dec-2024 17:36 | 429273 | ||
| NFDF1_TS_DEWT_082020.nc | 15-Dec-2024 17:43 | 429285 | ||
| NFDF1_TS_DEWT_082021.nc | 15-Dec-2024 17:50 | 429283 | ||
| NFDF1_TS_DEWT_082022.nc | 15-Dec-2024 17:57 | 429275 | ||
| NFDF1_TS_DEWT_082025.nc | 01-Sep-2025 07:18 | 429279 | ||
| NFDF1_TS_DEWT_092014.nc | 15-Dec-2024 17:09 | 429480 | ||
| NFDF1_TS_DEWT_092015.nc | 15-Dec-2024 17:22 | 440113 | ||
| NFDF1_TS_DEWT_092016.nc | 15-Dec-2024 17:29 | 439989 | ||
| NFDF1_TS_DEWT_092017.nc | 15-Dec-2024 17:36 | 440106 | ||
| NFDF1_TS_DEWT_092021.nc | 15-Dec-2024 17:50 | 439946 | ||
| NFDF1_TS_DEWT_092022.nc | 15-Dec-2024 17:58 | 439955 | ||
| NFDF1_TS_DEWT_092025.nc | 01-Oct-2025 07:29 | 440131 | ||
| NFDF1_TS_DEWT_102014.nc | 15-Dec-2024 17:10 | 440143 | ||
| NFDF1_TS_DEWT_102015.nc | 15-Dec-2024 17:23 | 440140 | ||
| NFDF1_TS_DEWT_102016.nc | 15-Dec-2024 17:30 | 440148 | ||
| NFDF1_TS_DEWT_102021.nc | 15-Dec-2024 17:51 | 440140 | ||
| NFDF1_TS_DEWT_102022.nc | 15-Dec-2024 17:58 | 440154 | ||
| NFDF1_TS_DEWT_102024.nc | 12-Jan-2025 22:14 | 440147 | ||
| NFDF1_TS_DEWT_102025.nc | 01-Nov-2025 06:09 | 440116 | ||
| NFDF1_TS_DEWT_112014.nc | 15-Dec-2024 17:11 | 440156 | ||
| NFDF1_TS_DEWT_112015.nc | 15-Dec-2024 17:23 | 440145 | ||
| NFDF1_TS_DEWT_112016.nc | 15-Dec-2024 17:31 | 440130 | ||
| NFDF1_TS_DEWT_112021.nc | 15-Dec-2024 17:52 | 440109 | ||
| NFDF1_TS_DEWT_112022.nc | 15-Dec-2024 17:59 | 440127 | ||
| NFDF1_TS_DEWT_112023.nc | 15-Dec-2024 18:06 | 440123 | ||
| NFDF1_TS_DEWT_112024.nc | 17-Jan-2025 18:33 | 429611 | ||
| NFDF1_TS_DEWT_112025.nc | 15-Nov-2025 07:08 | 429601 | ||
| NFDF1_TS_DEWT_122014.nc | 15-Dec-2024 17:12 | 429602 | ||
| NFDF1_TS_DEWT_122015.nc | 15-Dec-2024 17:24 | 429606 | ||
| NFDF1_TS_DEWT_122016.nc | 15-Dec-2024 17:31 | 429612 | ||
| NFDF1_TS_DEWT_122021.nc | 15-Dec-2024 17:52 | 429602 | ||
| NFDF1_TS_DEWT_122022.nc | 15-Dec-2024 18:00 | 429613 | ||
| NFDF1_TS_DEWT_122023.nc | 15-Dec-2024 18:06 | 429615 | ||
| NFDF1_TS_DEWT_122024.nc | 22-Jan-2025 18:59 | 429606 | ||
| NFDF1_TS_DEWT_122025.nc | 30-Dec-2025 04:21 | 429823 | ||